Terminal Aerodrome Forecast
Issued by NWS

Current Version | Previous Version | Text Only | Print | Product List | Glossary On
Versions: 1 2 3 4 5 6 7 8 9 10 11 12 13
000
FTUS44 KEPZ 312300
TAFTCS
TAF
KTCS 312336Z 0100/0124 17008KT P6SM FEW080 SCT250
      TEMPO 0100/0102 19012G22KT
     FM010400 19010KT P6SM VCSH SCT050 BKN200
     FM011200 VRB05KT P6SM SCT040 BKN250
     FM011600 10008KT P6SM FEW040 SCT070 OVC170=

USA.gov is the U.S. government's official web portal to all federal, state and local government web resources and services.